Time;durP1;ratioP1;P1;durP2;ratioP2;P2;SDS_P1;SDS_P2;PMS_P1;PMS_P2;Temp;Humidity;BMP_temperature;BMP_pressure;BME280_temperature;BME280_humidity;BME280_pressure;Samples;Min_cycle;Max_cycle;Signal;HPM_P1;HPM_P2
2022/04/03 00:02:05;;;;;;;;;53.25;40.25;;;;;;;;5046136;28;51587;-63
2022/04/03 00:04:50;;;;;;;;;36.25;28.00;;;;;;;;5043277;28;51143;-62
2022/04/03 00:07:37;;;;;;;;;28.75;18.75;;;;;;;;5054769;27;51764;-62
2022/04/03 00:10:23;;;;;;;;;35.00;24.00;;;;;;;;5045630;28;51080;-62
2022/04/03 00:13:08;;;;;;;;;24.50;17.00;;;;;;;;5051388;28;52165;-60
2022/04/03 00:15:56;;;;;;;;;20.00;16.00;;;;;;;;5052639;27;51141;-62
2022/04/03 00:18:45;;;;;;;;;19.50;15.00;;;;;;;;5051778;28;51397;-63
2022/04/03 00:21:30;;;;;;;;;22.00;13.25;;;;;;;;5050607;28;51209;-61
2022/04/03 00:24:35;;;;;;;;;15.25;12.50;;;;;;;;5049022;28;51158;-64
2022/04/03 00:27:19;;;;;;;;;25.00;17.50;;;;;;;;5054384;28;51135;-62
2022/04/03 00:30:09;;;;;;;;;28.50;18.25;;;;;;;;5046436;28;51239;-61
2022/04/03 00:32:53;;;;;;;;;30.00;19.75;;;;;;;;5047811;28;51171;-64
2022/04/03 00:35:37;;;;;;;;;21.25;16.75;;;;;;;;5045456;28;51167;-63
2022/04/03 00:38:23;;;;;;;;;23.50;15.00;;;;;;;;5049202;28;51194;-62
2022/04/03 00:41:08;;;;;;;;;17.50;14.50;;;;;;;;5050082;28;51312;-61
2022/04/03 00:43:56;;;;;;;;;23.50;17.25;;;;;;;;5048610;28;51699;-63
2022/04/03 00:46:42;;;;;;;;;12.75;11.50;;;;;;;;5048997;28;51402;-64
2022/04/03 00:49:30;;;;;;;;;21.00;15.00;;;;;;;;5049109;28;51147;-62
2022/04/03 00:52:20;;;;;;;;;16.75;14.25;;;;;;;;5017232;28;51445;-62
2022/04/03 00:55:04;;;;;;;;;14.25;14.25;;;;;;;;5049488;28;51380;-61
2022/04/03 00:57:48;;;;;;;;;19.50;15.00;;;;;;;;5052128;28;51472;-64
2022/04/03 01:00:39;;;;;;;;;21.50;16.25;;;;;;;;5059981;28;51120;-63
2022/04/03 01:03:45;;;;;;;;;20.25;14.00;;;;;;;;5060148;28;51173;-62
2022/04/03 01:06:34;;;;;;;;;19.25;13.50;;;;;;;;5060247;28;51185;-64
2022/04/03 01:09:18;;;;;;;;;21.50;14.75;;;;;;;;5059037;28;51342;-63
2022/04/03 01:12:06;;;;;;;;;21.25;15.25;;;;;;;;5058127;28;51153;-62
2022/04/03 01:14:52;;;;;;;;;20.75;14.75;;;;;;;;5059869;28;51194;-62
2022/04/03 01:17:36;;;;;;;;;21.50;14.00;;;;;;;;5059517;28;51190;-62
2022/04/03 01:20:21;;;;;;;;;17.50;15.00;;;;;;;;5059326;28;51137;-61
2022/04/03 01:23:05;;;;;;;;;20.00;15.00;;;;;;;;5044272;28;51510;-60
2022/04/03 01:25:54;;;;;;;;;23.00;13.50;;;;;;;;5059031;28;51185;-63
2022/04/03 01:28:39;;;;;;;;;19.25;14.25;;;;;;;;5058878;28;51086;-64
2022/04/03 01:31:24;;;;;;;;;20.75;15.00;;;;;;;;5059269;28;51094;-61
2022/04/03 01:34:09;;;;;;;;;25.50;15.50;;;;;;;;5058153;28;51208;-61
2022/04/03 01:37:05;;;;;;;;;18.50;13.50;;;;;;;;5059463;28;51822;-63
2022/04/03 01:39:50;;;;;;;;;20.50;14.25;;;;;;;;5058724;28;51206;-63
2022/04/03 01:42:36;;;;;;;;;14.50;12.00;;;;;;;;5058595;28;51402;-63
2022/04/03 01:45:31;;;;;;;;;18.50;13.00;;;;;;;;5075072;27;51205;-62
2022/04/03 01:48:16;;;;;;;;;21.50;14.50;;;;;;;;5058927;28;51100;-64
2022/04/03 01:51:02;;;;;;;;;20.25;14.75;;;;;;;;5059119;28;51145;-64
2022/04/03 01:53:57;;;;;;;;;20.25;12.75;;;;;;;;5058352;28;51923;-63
2022/04/03 01:56:44;;;;;;;;;20.25;13.50;;;;;;;;5059216;28;51772;-64
2022/04/03 01:59:30;;;;;;;;;21.75;14.25;;;;;;;;5059045;28;51434;-63
2022/04/03 02:02:20;;;;;;;;;14.00;12.75;;;;;;;;5058257;28;51275;-62
2022/04/03 02:05:06;;;;;;;;;15.50;10.50;;;;;;;;5059304;28;51291;-62
2022/04/03 02:07:51;;;;;;;;;15.75;12.25;;;;;;;;5058707;27;51464;-63
2022/04/03 02:10:37;;;;;;;;;18.25;13.00;;;;;;;;5069628;27;51208;-62
2022/04/03 02:13:26;;;;;;;;;16.25;10.00;;;;;;;;5057444;28;51070;-62
2022/04/03 02:16:24;;;;;;;;;17.25;14.25;;;;;;;;5058098;28;51281;-62
2022/04/03 02:19:09;;;;;;;;;15.25;12.25;;;;;;;;5058926;28;51131;-63
2022/04/03 02:21:55;;;;;;;;;11.00;6.00;;;;;;;;5058788;28;51584;-63
2022/04/03 02:24:43;;;;;;;;;18.75;11.00;;;;;;;;5057691;28;51621;-63
2022/04/03 02:27:30;;;;;;;;;16.50;13.50;;;;;;;;5058003;28;51211;-64
2022/04/03 02:30:44;;;;;;;;;14.50;11.75;;;;;;;;5057931;28;51151;-62
2022/04/03 02:33:29;;;;;;;;;20.50;10.50;;;;;;;;5058243;28;51154;-61
2022/04/03 02:36:14;;;;;;;;;16.50;12.25;;;;;;;;5058812;28;51095;-62
2022/04/03 02:38:59;;;;;;;;;16.00;13.75;;;;;;;;5058313;28;51095;-63
2022/04/03 02:41:56;;;;;;;;;14.00;13.00;;;;;;;;5058607;28;51088;-61
2022/04/03 02:44:42;;;;;;;;;19.75;12.50;;;;;;;;5043399;28;51222;-64
2022/04/03 02:47:28;;;;;;;;;17.25;12.00;;;;;;;;5057569;28;51204;-63
2022/04/03 02:50:16;;;;;;;;;14.25;13.25;;;;;;;;5057921;28;51547;-61
2022/04/03 02:53:01;;;;;;;;;12.50;9.50;;;;;;;;5058841;28;51138;-62
2022/04/03 02:55:56;;;;;;;;;14.75;12.00;;;;;;;;5067135;27;51435;-61
2022/04/03 02:58:41;;;;;;;;;16.00;13.00;;;;;;;;5059348;28;51538;-61
2022/04/03 03:01:25;;;;;;;;;21.75;13.50;;;;;;;;5062282;28;51154;-62
2022/04/03 03:04:09;;;;;;;;;18.25;12.25;;;;;;;;5062278;28;51455;-64
2022/04/03 03:06:54;;;;;;;;;17.25;12.50;;;;;;;;5061134;28;51138;-61
2022/04/03 03:09:39;;;;;;;;;22.50;12.50;;;;;;;;5061866;28;51567;-62
2022/04/03 03:12:23;;;;;;;;;21.75;13.00;;;;;;;;5070685;27;51127;-61
2022/04/03 03:15:11;;;;;;;;;14.50;12.25;;;;;;;;5060415;28;51657;-63
2022/04/03 03:17:57;;;;;;;;;18.50;13.50;;;;;;;;5053625;28;51167;-63
2022/04/03 03:21:09;;;;;;;;;19.00;13.25;;;;;;;;5056699;28;51171;-62
2022/04/03 03:24:02;;;;;;;;;23.50;15.00;;;;;;;;5047304;28;51464;-60
2022/04/03 03:26:49;;;;;;;;;20.25;11.75;;;;;;;;5073308;27;51081;-64
2022/04/03 03:29:35;;;;;;;;;18.75;11.75;;;;;;;;5061857;28;51206;-64
2022/04/03 03:32:20;;;;;;;;;19.50;14.00;;;;;;;;5061050;28;51086;-61
2022/04/03 03:35:08;;;;;;;;;25.50;14.00;;;;;;;;5061661;28;51601;-63
2022/04/03 03:37:55;;;;;;;;;24.75;13.50;;;;;;;;5061412;28;51188;-63
2022/04/03 03:40:41;;;;;;;;;23.00;17.00;;;;;;;;5046428;28;51618;-61
2022/04/03 03:43:55;;;;;;;;;21.00;17.25;;;;;;;;5060531;28;51438;-62
2022/04/03 03:46:43;;;;;;;;;18.00;14.75;;;;;;;;5060683;28;50984;-64
2022/04/03 03:49:28;;;;;;;;;18.75;15.50;;;;;;;;5061216;28;51445;-64
2022/04/03 03:52:13;;;;;;;;;26.00;16.25;;;;;;;;5061352;28;51008;-64
2022/04/03 03:55:09;;;;;;;;;18.00;15.00;;;;;;;;5060703;28;51527;-63
2022/04/03 03:58:04;;;;;;;;;17.50;13.25;;;;;;;;5060161;28;51026;-61
2022/04/03 04:00:50;;;;;;;;;19.75;13.75;;;;;;;;5060873;28;51487;-63
2022/04/03 04:03:36;;;;;;;;;20.00;15.00;;;;;;;;5060318;28;51193;-62
2022/04/03 04:06:21;;;;;;;;;22.25;13.25;;;;;;;;5060731;28;50961;-62
2022/04/03 04:09:09;;;;;;;;;20.75;13.25;;;;;;;;5060307;28;51293;-63
2022/04/03 04:11:54;;;;;;;;;20.50;14.00;;;;;;;;5061356;28;51066;-62
2022/04/03 04:14:53;;;;;;;;;21.00;14.25;;;;;;;;5060424;28;51063;-62
2022/04/03 04:17:48;;;;;;;;;16.75;14.25;;;;;;;;5060065;28;51035;-62
2022/04/03 04:20:36;;;;;;;;;20.75;16.75;;;;;;;;5070767;27;51099;-64
2022/04/03 04:23:21;;;;;;;;;18.75;12.25;;;;;;;;5060712;28;50988;-63
2022/04/03 04:26:07;;;;;;;;;22.75;16.00;;;;;;;;5045013;28;51132;-63
2022/04/03 04:28:51;;;;;;;;;21.75;15.00;;;;;;;;5059822;27;50996;-61
2022/04/03 04:31:39;;;;;;;;;24.25;14.75;;;;;;;;5067730;27;51489;-61
2022/04/03 04:34:23;;;;;;;;;24.75;14.50;;;;;;;;5059946;28;51074;-62
2022/04/03 04:37:11;;;;;;;;;19.00;14.50;;;;;;;;5060516;28;51221;-63
2022/04/03 04:39:58;;;;;;;;;19.25;15.25;;;;;;;;5059482;28;51112;-63
2022/04/03 04:42:47;;;;;;;;;23.50;13.75;;;;;;;;5040827;28;51156;-62
2022/04/03 04:45:34;;;;;;;;;17.25;13.25;;;;;;;;5060254;28;51140;-62
2022/04/03 04:48:20;;;;;;;;;14.00;9.75;;;;;;;;5060157;28;51020;-62
2022/04/03 04:51:06;;;;;;;;;19.75;11.00;;;;;;;;5046366;28;51442;-63
2022/04/03 04:53:51;;;;;;;;;22.75;15.25;;;;;;;;5059527;27;51119;-64
2022/04/03 04:56:36;;;;;;;;;19.50;11.50;;;;;;;;5059247;28;51524;-63
2022/04/03 04:59:20;;;;;;;;;20.25;15.25;;;;;;;;5056821;27;51119;-63
2022/04/03 05:02:18;;;;;;;;;24.75;14.75;;;;;;;;5059535;28;51272;-62
2022/04/03 05:05:05;;;;;;;;;24.50;17.00;;;;;;;;5059401;28;51480;-63
2022/04/03 05:08:00;;;;;;;;;19.25;16.00;;;;;;;;5059985;28;51254;-63
2022/04/03 05:10:53;;;;;;;;;24.25;15.75;;;;;;;;5059392;28;51182;-63
2022/04/03 05:13:37;;;;;;;;;22.50;15.00;;;;;;;;5059595;28;51189;-64
2022/04/03 05:16:26;;;;;;;;;24.00;16.25;;;;;;;;5058486;28;51150;-63
2022/04/03 05:19:14;;;;;;;;;22.00;14.25;;;;;;;;5059122;28;51090;-62
2022/04/03 05:22:02;;;;;;;;;24.75;16.00;;;;;;;;5059171;28;51176;-62
2022/04/03 05:24:47;;;;;;;;;21.25;18.00;;;;;;;;5059329;28;51173;-62
2022/04/03 05:27:33;;;;;;;;;19.25;16.00;;;;;;;;5059119;28;51149;-64
2022/04/03 05:30:17;;;;;;;;;21.50;15.00;;;;;;;;5059582;28;51869;-60
2022/04/03 05:33:06;;;;;;;;;19.75;15.50;;;;;;;;5057696;28;51158;-64
2022/04/03 05:35:55;;;;;;;;;23.50;15.25;;;;;;;;5056884;28;51204;-63
2022/04/03 05:38:50;;;;;;;;;19.75;13.75;;;;;;;;5052251;28;51081;-62
2022/04/03 05:41:44;;;;;;;;;25.50;13.75;;;;;;;;5059353;28;51269;-62
2022/04/03 05:44:31;;;;;;;;;21.50;16.25;;;;;;;;5054853;28;51206;-62
2022/04/03 05:47:17;;;;;;;;;22.50;15.00;;;;;;;;5058387;28;51819;-62
2022/04/03 05:50:05;;;;;;;;;18.25;14.25;;;;;;;;5070328;27;51268;-62
2022/04/03 05:52:50;;;;;;;;;14.25;11.00;;;;;;;;5042763;28;51202;-62
2022/04/03 05:55:38;;;;;;;;;17.75;13.75;;;;;;;;5063934;27;51063;-62
2022/04/03 05:58:24;;;;;;;;;24.25;17.75;;;;;;;;5057063;28;51026;-63
2022/04/03 06:01:09;;;;;;;;;19.75;14.25;;;;;;;;5058200;28;51111;-64
2022/04/03 06:04:05;;;;;;;;;18.25;16.50;;;;;;;;5056986;28;51221;-64
2022/04/03 06:06:51;;;;;;;;;23.50;17.25;;;;;;;;5058364;28;51051;-61
2022/04/03 06:09:46;;;;;;;;;23.75;16.00;;;;;;;;5058332;28;51123;-62
2022/04/03 06:12:34;;;;;;;;;18.75;12.75;;;;;;;;5058799;28;51147;-61
2022/04/03 06:15:19;;;;;;;;;25.75;18.25;;;;;;;;5058283;28;51513;-61
2022/04/03 06:18:08;;;;;;;;;25.25;17.00;;;;;;;;5044921;28;51190;-60
2022/04/03 06:20:53;;;;;;;;;19.00;12.50;;;;;;;;5058290;28;51169;-63
2022/04/03 06:23:39;;;;;;;;;22.00;12.00;;;;;;;;5058605;28;51130;-63
2022/04/03 06:26:23;;;;;;;;;21.50;16.50;;;;;;;;5057861;28;51199;-62
2022/04/03 06:29:08;;;;;;;;;22.00;14.00;;;;;;;;5058781;28;51126;-62
2022/04/03 06:31:52;;;;;;;;;25.25;20.25;;;;;;;;5057950;28;51488;-64
2022/04/03 06:34:41;;;;;;;;;18.50;13.00;;;;;;;;5057930;28;51175;-62
2022/04/03 06:37:26;;;;;;;;;19.25;12.25;;;;;;;;5058576;28;51504;-63
2022/04/03 06:40:11;;;;;;;;;19.00;13.25;;;;;;;;5057424;28;51060;-63
2022/04/03 06:42:56;;;;;;;;;23.00;12.50;;;;;;;;5046929;28;51191;-62
2022/04/03 06:45:42;;;;;;;;;22.25;17.25;;;;;;;;5058499;28;51359;-63
2022/04/03 06:48:31;;;;;;;;;17.25;15.75;;;;;;;;5058587;28;51519;-62
2022/04/03 06:51:17;;;;;;;;;17.75;13.50;;;;;;;;5058071;28;51087;-61
2022/04/03 06:54:03;;;;;;;;;21.75;16.25;;;;;;;;5057567;28;51190;-63
2022/04/03 06:56:49;;;;;;;;;15.25;13.50;;;;;;;;5054205;28;51452;-62
2022/04/03 06:59:33;;;;;;;;;12.50;11.75;;;;;;;;5058117;28;51142;-63
2022/04/03 07:02:18;;;;;;;;;19.00;11.00;;;;;;;;5076891;27;51155;-62
2022/04/03 07:05:09;;;;;;;;;20.75;17.25;;;;;;;;5060313;28;51118;-62
2022/04/03 07:07:55;;;;;;;;;17.00;14.00;;;;;;;;5056042;28;51214;-64
2022/04/03 07:10:40;;;;;;;;;23.25;18.75;;;;;;;;5057156;28;51586;-63
2022/04/03 07:13:31;;;;;;;;;19.25;14.00;;;;;;;;5058218;28;51105;-60
2022/04/03 07:16:27;;;;;;;;;15.00;11.75;;;;;;;;5058323;28;51178;-62
2022/04/03 07:19:12;;;;;;;;;15.00;10.75;;;;;;;;5056825;28;51877;-60
2022/04/03 07:21:58;;;;;;;;;16.25;13.50;;;;;;;;5074452;28;51132;-63
2022/04/03 07:24:43;;;;;;;;;18.50;10.00;;;;;;;;5057775;28;51104;-64
2022/04/03 07:27:27;;;;;;;;;20.75;12.75;;;;;;;;5057663;28;51467;-63
2022/04/03 07:30:12;;;;;;;;;20.75;15.75;;;;;;;;5056568;28;51257;-63
2022/04/03 07:32:53;;;;;;;;;11.75;10.00;;;;;;;;4320431;32;51096;-52
2022/04/03 07:35:50;;;;;;;;;15.25;11.50;;;;;;;;5060192;28;51151;-51
2022/04/03 07:38:34;;;;;;;;;14.25;11.50;;;;;;;;5086521;27;51199;-49
2022/04/03 07:41:21;;;;;;;;;15.00;12.75;;;;;;;;5065729;28;51150;-50
2022/04/03 07:44:08;;;;;;;;;12.25;9.50;;;;;;;;5052526;28;51056;-50
2022/04/03 07:46:52;;;;;;;;;16.00;8.25;;;;;;;;5056296;28;51086;-54
2022/04/03 07:49:37;;;;;;;;;18.50;11.25;;;;;;;;5056111;28;50997;-51
2022/04/03 07:52:21;;;;;;;;;15.75;10.00;;;;;;;;5059739;28;51538;-50
2022/04/03 07:55:05;;;;;;;;;15.00;10.50;;;;;;;;5055582;28;51649;-53
2022/04/03 07:57:50;;;;;;;;;15.25;12.75;;;;;;;;5055815;28;51114;-53
2022/04/03 08:00:36;;;;;;;;;14.25;11.00;;;;;;;;5044581;28;51153;-48
2022/04/03 08:03:20;;;;;;;;;12.25;10.25;;;;;;;;5055406;28;51087;-52
2022/04/03 08:06:09;;;;;;;;;14.50;10.75;;;;;;;;5055196;28;52184;-50
2022/04/03 08:09:05;;;;;;;;;13.25;9.75;;;;;;;;5064161;28;51126;-46
2022/04/03 08:12:02;;;;;;;;;13.75;13.25;;;;;;;;5056903;28;51330;-51
2022/04/03 08:14:48;;;;;;;;;11.50;4.75;;;;;;;;5070059;28;51069;-52
2022/04/03 08:17:32;;;;;;;;;13.75;10.75;;;;;;;;5065133;28;51128;-53
2022/04/03 08:20:17;;;;;;;;;18.75;12.75;;;;;;;;5055436;28;51446;-52
2022/04/03 08:23:03;;;;;;;;;18.25;11.75;;;;;;;;5054481;28;51155;-47
2022/04/03 08:25:48;;;;;;;;;11.00;9.75;;;;;;;;5058031;28;52894;-48
2022/04/03 08:28:36;;;;;;;;;14.75;11.00;;;;;;;;5051735;28;51079;-51
2022/04/03 08:31:24;;;;;;;;;17.25;11.50;;;;;;;;5056547;28;52593;-50
2022/04/03 08:34:10;;;;;;;;;15.25;10.75;;;;;;;;5075419;28;51025;-52
2022/04/03 08:36:55;;;;;;;;;18.50;11.00;;;;;;;;5061172;28;51376;-51
2022/04/03 08:39:41;;;;;;;;;15.75;12.00;;;;;;;;5055291;28;51060;-53
2022/04/03 08:42:44;;;;;;;;;21.00;13.75;;;;;;;;5051155;28;51561;-50
2022/04/03 08:45:30;;;;;;;;;15.00;11.50;;;;;;;;5040897;28;51150;-53
2022/04/03 08:48:15;;;;;;;;;23.50;11.50;;;;;;;;5039639;28;51207;-52
2022/04/03 08:51:04;;;;;;;;;19.75;10.75;;;;;;;;5069291;27;51159;-51
2022/04/03 08:53:49;;;;;;;;;17.25;11.75;;;;;;;;5050532;28;51504;-47
2022/04/03 08:56:33;;;;;;;;;16.00;12.25;;;;;;;;5041130;28;51214;-51
2022/04/03 08:59:19;;;;;;;;;16.75;11.00;;;;;;;;5040327;28;51533;-50
2022/04/03 09:02:07;;;;;;;;;17.25;13.50;;;;;;;;5040921;28;51150;-52
2022/04/03 09:04:52;;;;;;;;;18.75;14.25;;;;;;;;5038527;28;51120;-50
2022/04/03 09:07:37;;;;;;;;;19.25;16.00;;;;;;;;5040989;28;51520;-52
2022/04/03 09:10:21;;;;;;;;;18.25;13.50;;;;;;;;5041636;28;51081;-50
2022/04/03 09:13:07;;;;;;;;;14.50;11.25;;;;;;;;5045486;28;51242;-52
2022/04/03 09:15:52;;;;;;;;;20.75;16.25;;;;;;;;5042050;28;51016;-52
2022/04/03 09:18:49;;;;;;;;;21.75;16.00;;;;;;;;5037584;28;51266;-47
2022/04/03 09:21:35;;;;;;;;;20.75;17.00;;;;;;;;5035958;28;51102;-52
2022/04/03 09:24:19;;;;;;;;;22.25;15.00;;;;;;;;5040792;28;51493;-53
2022/04/03 09:27:04;;;;;;;;;27.50;17.50;;;;;;;;5041207;28;51005;-50
2022/04/03 09:30:00;;;;;;;;;26.00;13.50;;;;;;;;5041352;28;51095;-54
2022/04/03 09:32:57;;;;;;;;;20.00;13.50;;;;;;;;5039958;28;51364;-49
2022/04/03 09:35:58;;;;;;;;;15.25;12.50;;;;;;;;5040784;28;51143;-51
2022/04/03 09:38:43;;;;;;;;;29.00;17.00;;;;;;;;5039160;28;51173;-54
2022/04/03 09:41:28;;;;;;;;;25.00;18.00;;;;;;;;5032229;28;51068;-51
2022/04/03 09:44:17;;;;;;;;;24.25;18.25;;;;;;;;5040380;28;51198;-48
2022/04/03 09:47:20;;;;;;;;;25.75;16.25;;;;;;;;5036908;28;51120;-49
2022/04/03 09:50:08;;;;;;;;;24.50;17.00;;;;;;;;5040626;28;51065;-51
2022/04/03 09:53:23;;;;;;;;;20.50;17.00;;;;;;;;5037948;28;51119;-51
2022/04/03 09:56:10;;;;;;;;;24.00;16.75;;;;;;;;5040524;28;51001;-51
2022/04/03 09:59:03;;;;;;;;;22.00;16.00;;;;;;;;5039231;28;51189;-51
2022/04/03 10:01:55;;;;;;;;;19.75;16.50;;;;;;;;5040663;28;51494;-49
2022/04/03 10:04:39;;;;;;;;;22.50;18.25;;;;;;;;5024425;28;51197;-48
2022/04/03 10:07:25;;;;;;;;;17.75;13.25;;;;;;;;5040814;28;51138;-48
2022/04/03 10:10:11;;;;;;;;;21.25;15.75;;;;;;;;5039848;28;51104;-55
2022/04/03 10:12:58;;;;;;;;;25.50;18.75;;;;;;;;5039869;28;51195;-50
2022/04/03 10:15:45;;;;;;;;;18.00;14.00;;;;;;;;5035601;28;51437;-50
2022/04/03 10:18:34;;;;;;;;;18.25;13.25;;;;;;;;5039476;28;51152;-49
2022/04/03 10:21:36;;;;;;;;;18.75;12.00;;;;;;;;5039850;28;51206;-51
2022/04/03 10:24:30;;;;;;;;;21.50;15.00;;;;;;;;5036179;28;51479;-53
2022/04/03 10:27:19;;;;;;;;;17.75;12.25;;;;;;;;5037607;28;51108;-49
2022/04/03 10:30:07;;;;;;;;;16.00;12.75;;;;;;;;5039244;28;51000;-55
2022/04/03 10:32:59;;;;;;;;;19.25;10.75;;;;;;;;5040453;28;51137;-51
2022/04/03 10:35:48;;;;;;;;;28.50;15.25;;;;;;;;5039835;28;51123;-51
2022/04/03 10:38:57;;;;;;;;;17.75;12.25;;;;;;;;5045861;28;51113;-53
2022/04/03 10:41:44;;;;;;;;;19.00;13.00;;;;;;;;5040420;28;51112;-50
2022/04/03 10:44:32;;;;;;;;;10.00;7.25;;;;;;;;5038546;28;51479;-50
2022/04/03 10:47:19;;;;;;;;;21.75;14.25;;;;;;;;5039057;28;51065;-55
2022/04/03 10:50:05;;;;;;;;;17.75;13.25;;;;;;;;5039376;28;51272;-49
2022/04/03 10:52:54;;;;;;;;;21.25;16.50;;;;;;;;5039670;28;51275;-52
2022/04/03 10:55:41;;;;;;;;;17.50;14.25;;;;;;;;5038827;28;51001;-51
2022/04/03 10:58:38;;;;;;;;;20.75;14.75;;;;;;;;5039334;28;51278;-51
2022/04/03 11:01:29;;;;;;;;;15.75;11.75;;;;;;;;5056136;28;52649;-53
2022/04/03 11:04:21;;;;;;;;;19.00;16.00;;;;;;;;5049522;28;51107;-50
2022/04/03 11:07:12;;;;;;;;;19.25;14.75;;;;;;;;5046128;28;51442;-52
2022/04/03 11:09:57;;;;;;;;;17.50;12.25;;;;;;;;5039316;28;51028;-50
2022/04/03 11:12:55;;;;;;;;;25.50;16.75;;;;;;;;5038775;28;51087;-51
2022/04/03 11:16:09;;;;;;;;;18.25;14.50;;;;;;;;5038564;28;51548;-50
2022/04/03 11:18:54;;;;;;;;;15.75;13.50;;;;;;;;5035243;28;51418;-53
2022/04/03 11:21:42;;;;;;;;;18.25;12.75;;;;;;;;5037867;28;51359;-49
2022/04/03 11:24:27;;;;;;;;;20.50;13.25;;;;;;;;5051779;28;51084;-50
2022/04/03 11:27:13;;;;;;;;;20.50;16.00;;;;;;;;5058738;28;51073;-51
2022/04/03 11:29:59;;;;;;;;;18.00;10.00;;;;;;;;5058473;28;51062;-53
2022/04/03 11:33:02;;;;;;;;;20.50;14.50;;;;;;;;5037929;28;51434;-51
2022/04/03 11:35:47;;;;;;;;;17.25;12.25;;;;;;;;5039003;28;51178;-50
2022/04/03 11:38:46;;;;;;;;;15.75;13.25;;;;;;;;5038803;28;51019;-52
2022/04/03 11:41:39;;;;;;;;;19.00;12.50;;;;;;;;5038306;28;51056;-52
2022/04/03 11:44:29;;;;;;;;;21.50;13.00;;;;;;;;5039320;28;51325;-47
2022/04/03 11:47:21;;;;;;;;;17.75;13.75;;;;;;;;5038682;28;51207;-47
2022/04/03 11:50:11;;;;;;;;;15.25;12.50;;;;;;;;5038112;28;51132;-52
2022/04/03 11:53:11;;;;;;;;;21.00;14.00;;;;;;;;5039390;28;51427;-49
2022/04/03 11:56:15;;;;;;;;;21.00;13.75;;;;;;;;5038584;28;51141;-47
2022/04/03 11:59:04;;;;;;;;;15.75;13.25;;;;;;;;5038507;28;51460;-52
2022/04/03 12:01:51;;;;;;;;;14.50;11.75;;;;;;;;5037748;28;51137;-53
2022/04/03 12:04:42;;;;;;;;;17.75;13.25;;;;;;;;5037664;28;51048;-47
2022/04/03 12:07:27;;;;;;;;;19.00;14.00;;;;;;;;5042693;28;51028;-53
2022/04/03 12:10:21;;;;;;;;;19.50;13.25;;;;;;;;5037511;28;51252;-48
2022/04/03 12:13:07;;;;;;;;;21.00;15.00;;;;;;;;5038344;28;52430;-51
2022/04/03 12:15:53;;;;;;;;;20.50;15.50;;;;;;;;5039171;28;51123;-50
2022/04/03 12:19:03;;;;;;;;;21.50;15.00;;;;;;;;5040075;28;51539;-52
2022/04/03 12:21:49;;;;;;;;;17.50;13.75;;;;;;;;5042340;28;51182;-50
2022/04/03 12:24:37;;;;;;;;;19.75;16.25;;;;;;;;5041829;28;50993;-51
2022/04/03 12:27:22;;;;;;;;;17.50;13.25;;;;;;;;5056396;27;51139;-53
2022/04/03 12:30:14;;;;;;;;;12.25;10.25;;;;;;;;5045076;28;51088;-51
2022/04/03 12:32:59;;;;;;;;;15.50;11.00;;;;;;;;5059241;28;51113;-49
2022/04/03 12:35:44;;;;;;;;;21.50;16.25;;;;;;;;5041729;28;51057;-52
2022/04/03 12:38:29;;;;;;;;;20.25;13.75;;;;;;;;5042202;28;51191;-54
2022/04/03 12:41:15;;;;;;;;;21.50;16.25;;;;;;;;5042698;28;51127;-53
2022/04/03 12:43:59;;;;;;;;;16.00;12.25;;;;;;;;5042128;28;51077;-51
2022/04/03 12:46:45;;;;;;;;;16.00;14.00;;;;;;;;5048003;28;51087;-45
2022/04/03 12:49:29;;;;;;;;;23.75;14.25;;;;;;;;5042041;28;51051;-50
2022/04/03 12:52:38;;;;;;;;;16.00;13.00;;;;;;;;5041183;28;51271;-50
2022/04/03 12:58:24;;;;;;;;;17.50;11.00;;;;;;;;5041663;28;51302;-55
2022/04/03 13:01:29;;;;;;;;;16.50;14.50;;;;;;;;5042085;28;51399;-54
2022/04/03 13:04:43;;;;;;;;;24.25;14.00;;;;;;;;5040946;28;51143;-51
2022/04/03 13:07:28;;;;;;;;;20.75;15.00;;;;;;;;5042090;28;51012;-49
2022/04/03 13:10:13;;;;;;;;;20.00;16.25;;;;;;;;5040297;28;51408;-53
2022/04/03 13:12:59;;;;;;;;;18.50;15.75;;;;;;;;5039297;28;51064;-48
2022/04/03 13:15:46;;;;;;;;;23.25;14.25;;;;;;;;5040464;28;51142;-53
2022/04/03 13:18:37;;;;;;;;;17.00;13.75;;;;;;;;5041276;28;51025;-49
2022/04/03 13:21:32;;;;;;;;;25.75;16.25;;;;;;;;5040995;28;51166;-52
2022/04/03 13:24:17;;;;;;;;;17.00;13.50;;;;;;;;5040631;28;51250;-50
2022/04/03 13:27:05;;;;;;;;;16.25;13.50;;;;;;;;5041635;28;51152;-50
2022/04/03 13:29:50;;;;;;;;;19.00;12.50;;;;;;;;5038298;28;51119;-47
2022/04/03 13:32:37;;;;;;;;;19.25;12.75;;;;;;;;5040176;28;51154;-50
2022/04/03 13:35:24;;;;;;;;;19.00;15.50;;;;;;;;5038605;28;51360;-52
2022/04/03 13:38:21;;;;;;;;;13.50;12.50;;;;;;;;5042707;28;51207;-49
2022/04/03 13:41:08;;;;;;;;;15.75;12.75;;;;;;;;5039489;28;51669;-54
2022/04/03 13:44:08;;;;;;;;;18.75;10.25;;;;;;;;5039413;28;51000;-56
2022/04/03 13:46:53;;;;;;;;;18.50;15.00;;;;;;;;5039692;28;51115;-53
2022/04/03 13:49:37;;;;;;;;;18.75;14.00;;;;;;;;5036983;28;51131;-54
2022/04/03 13:52:24;;;;;;;;;23.75;15.00;;;;;;;;5037689;28;51500;-51
2022/04/03 13:55:09;;;;;;;;;26.00;16.75;;;;;;;;5040516;28;51098;-55
2022/04/03 13:57:54;;;;;;;;;19.00;13.50;;;;;;;;5039849;28;51704;-48
2022/04/03 14:00:38;;;;;;;;;20.75;14.75;;;;;;;;5039027;28;51179;-52
2022/04/03 14:03:29;;;;;;;;;21.50;12.75;;;;;;;;5038614;28;51098;-50
2022/04/03 14:06:13;;;;;;;;;15.75;11.50;;;;;;;;5038414;28;51418;-53
2022/04/03 14:08:58;;;;;;;;;21.00;14.75;;;;;;;;5057073;27;51128;-51
2022/04/03 14:11:42;;;;;;;;;17.00;14.50;;;;;;;;5039250;28;51131;-51
2022/04/03 14:14:26;;;;;;;;;24.25;13.50;;;;;;;;5037947;28;52100;-52
2022/04/03 14:17:11;;;;;;;;;23.50;13.50;;;;;;;;5037818;28;51428;-52
2022/04/03 14:19:55;;;;;;;;;20.75;13.00;;;;;;;;5037892;28;51252;-52
2022/04/03 14:22:41;;;;;;;;;16.50;14.25;;;;;;;;5038469;28;51189;-52
2022/04/03 14:25:28;;;;;;;;;17.50;11.50;;;;;;;;5037178;28;51505;-52
2022/04/03 14:28:21;;;;;;;;;15.50;10.50;;;;;;;;5038325;28;51129;-51
2022/04/03 14:31:07;;;;;;;;;22.00;13.25;;;;;;;;5038140;28;51496;-48
2022/04/03 14:33:52;;;;;;;;;18.75;13.50;;;;;;;;5038040;28;51032;-53
2022/04/03 14:36:36;;;;;;;;;22.50;16.25;;;;;;;;5038800;28;51523;-49
2022/04/03 14:39:21;;;;;;;;;20.50;15.50;;;;;;;;5038220;28;51173;-53
2022/04/03 14:42:05;;;;;;;;;16.50;13.00;;;;;;;;5033141;28;51210;-53
2022/04/03 14:44:50;;;;;;;;;20.50;12.50;;;;;;;;5038165;28;51123;-51
2022/04/03 14:47:34;;;;;;;;;17.00;13.50;;;;;;;;5037529;28;51056;-51
2022/04/03 14:50:20;;;;;;;;;18.25;14.00;;;;;;;;5037274;28;51174;-50
2022/04/03 14:53:05;;;;;;;;;19.00;13.25;;;;;;;;5036781;28;51147;-50
2022/04/03 14:55:50;;;;;;;;;22.50;17.25;;;;;;;;5036784;28;51100;-52
2022/04/03 14:58:35;;;;;;;;;45.50;34.75;;;;;;;;5037641;28;51238;-53
2022/04/03 15:01:19;;;;;;;;;35.50;27.75;;;;;;;;5033979;28;51458;-49
2022/04/03 15:04:04;;;;;;;;;56.75;45.25;;;;;;;;5037750;28;51155;-49
2022/04/03 15:06:48;;;;;;;;;182.25;157.75;;;;;;;;5035742;28;51525;-54
2022/04/03 15:09:34;;;;;;;;;81.25;66.00;;;;;;;;5036191;28;51138;-51
2022/04/03 15:12:22;;;;;;;;;68.25;50.25;;;;;;;;5036885;28;51175;-52
2022/04/03 15:15:30;;;;;;;;;53.50;40.50;;;;;;;;5036563;28;51477;-49
2022/04/03 15:18:24;;;;;;;;;53.00;39.00;;;;;;;;5033277;28;51166;-47
2022/04/03 15:21:08;;;;;;;;;34.25;27.00;;;;;;;;5037744;28;51744;-47
2022/04/03 15:23:53;;;;;;;;;27.75;19.50;;;;;;;;5037223;28;51151;-49
2022/04/03 15:26:37;;;;;;;;;21.25;17.00;;;;;;;;5036889;28;51562;-52
2022/04/03 15:29:24;;;;;;;;;20.25;13.50;;;;;;;;5037017;28;51111;-49
2022/04/03 15:32:08;;;;;;;;;39.75;29.50;;;;;;;;5036407;28;51669;-48
2022/04/03 15:34:53;;;;;;;;;24.25;17.50;;;;;;;;5037094;28;51129;-49
2022/04/03 15:37:41;;;;;;;;;26.75;22.75;;;;;;;;5039625;28;51088;-50
2022/04/03 15:40:31;;;;;;;;;23.25;18.00;;;;;;;;5021272;28;51177;-49
2022/04/03 15:43:15;;;;;;;;;22.25;14.25;;;;;;;;5035887;28;51095;-51
2022/04/03 15:46:00;;;;;;;;;21.00;13.75;;;;;;;;5037107;28;51443;-54
2022/04/03 15:48:45;;;;;;;;;24.00;17.25;;;;;;;;5037837;28;51230;-51
2022/04/03 15:51:29;;;;;;;;;21.75;19.00;;;;;;;;5037275;28;51036;-51
2022/04/03 15:54:16;;;;;;;;;15.00;10.25;;;;;;;;5039494;28;51175;-55
2022/04/03 15:57:05;;;;;;;;;15.25;11.50;;;;;;;;5042774;28;51705;-49
2022/04/03 15:59:52;;;;;;;;;23.50;16.00;;;;;;;;5041906;28;51099;-48
2022/04/03 16:02:38;;;;;;;;;17.25;16.50;;;;;;;;5041275;28;51444;-52
2022/04/03 16:05:49;;;;;;;;;24.50;15.75;;;;;;;;5042438;28;51116;-48
2022/04/03 16:08:34;;;;;;;;;23.25;14.50;;;;;;;;5041960;28;51182;-51
2022/04/03 16:11:18;;;;;;;;;22.00;13.75;;;;;;;;5042281;28;51433;-46
2022/04/03 16:14:04;;;;;;;;;17.75;12.25;;;;;;;;5041364;28;51151;-53
2022/04/03 16:16:51;;;;;;;;;19.50;14.25;;;;;;;;5042308;28;51076;-52
2022/04/03 16:19:39;;;;;;;;;27.75;23.00;;;;;;;;5042424;28;51188;-53
2022/04/03 16:22:28;;;;;;;;;22.75;16.25;;;;;;;;5041935;28;51157;-48